Flight Track Log - Related Links

Times and Time Zones

All times are in EDT time to prevent confusion due to time zone crossing. See the SKW5516 flight status page for this flight to view local times or setup timezone preferences in your user account.

Time Position Orientation Groundspeed Altitude Reporting Facility
EDT Latitude Longitude Course Direction KTS km/h feet Rate Location/Type
Fri 17h56:00 36.6001 -119.6342 159° South  Level Estimated
Fri 17h57:00 36.5414 -119.6061 159° South  Level Estimated
Fri 17h58:00 36.4826 -119.5781 159° South  Level Estimated
Fri 17h59:00 36.4238 -119.5501 159° South  Level Estimated
Fri 18h00:00 36.3650 -119.5221 159° South  Level Estimated
Fri 18h01:00 36.3062 -119.4942 159° South  Level Estimated
Fri 18h02:00 36.2474 -119.4664 159° South  Level Estimated
Fri 18h03:00 36.1886 -119.4386 159° South  Level Estimated
Fri 18h04:00 36.1298 -119.4108 159° South  Level Estimated
Fri 18h05:00 36.0709 -119.3830 159° South  Level Estimated
Fri 18h06:00 36.0121 -119.3553 159° South  Level Estimated
Fri 18h07:00 35.9533 -119.3277 159° South  Level Estimated
Fri 18h08:00 35.8944 -119.3001 159° South  Level Estimated
Fri 18h09:00 35.8356 -119.2725 159° South  Level Estimated
Fri 18h10:00 35.7767 -119.2450 159° South  Level Estimated
Fri 18h11:00 35.7178 -119.2175 159° South  Level Estimated
Fri 18h12:00 35.6590 -119.1900 159° South  Level Estimated
Fri 18h13:00 35.6001 -119.1626 159° South  Level Estimated
Fri 18h14:00 35.5412 -119.1352 159° South  Level Estimated
Fri 18h15:00 35.4823 -119.1079 159° South  Level Estimated
Fri 18h16:00 35.4234 -119.0806 159° South  Level Estimated
Fri 18h17:00 35.3645 -119.0534 159° South  Level Estimated
Fri 18h18:00 35.3056 -119.0262 159° South  Level Estimated
Fri 18h19:00 35.2467 -118.9990 159° South  Level Estimated
Fri 18h20:00 35.1878 -118.9719 159° South  Level Estimated
Fri 18h21:00 35.1288 -118.9448 159° South  Level Estimated
Fri 18h22:00 35.0699 -118.9177 159° South  Level Estimated
Fri 18h23:00 35.0110 -118.8907 159° South  Level Estimated
Fri 18h24:00 34.9520 -118.8637 159° South  Level Estimated
Fri 18h25:00 34.8931 -118.8368 159° South  Level Estimated
Fri 18h26:00 34.8341 -118.8099 159° South  Level Estimated
Fri 18h27:00 34.7752 -118.7831 159° South  Level Estimated
Fri 18h28:00 34.7162 -118.7562 160° South  Level Estimated
Fri 18h29:00 34.6572 -118.7294 160° South  Level Estimated
Fri 18h30:00 34.5983 -118.7027 160° South  Level Estimated
Fri 18h31:00 34.5393 -118.6760 160° South  Level Estimated
Fri 18h32:00 34.4803 -118.6493 160° South  Level Estimated
Fri 18h33:00 34.4213 -118.6227 160° South  Level Estimated
Fri 18h34:00 34.3623 -118.5961 160° South  Level Estimated
Fri 18h35:00 34.3033 -118.5696 160° South  Level Estimated
Fri 18h36:00 34.2443 -118.5430 160° South  Level Estimated
Fri 18h37:00 34.1852 -118.5166 160° South  Level Estimated
Fri 18h38:00 34.1262 -118.4901 160° South  Level Estimated
Fri 18h39:00 34.0672 -118.4637 160° South  Level Estimated
Fri 18h40:00 34.0081 -118.4373 160° South  Level Estimated
Fri 18h41:00 33.9491 -118.4110 160° South  Level Estimated
Fri 18h42:00 33.9425 -118.4081 160° South  Level Estimated
Fri 18h43:00 33.9425 -118.4081 164° South  Level Estimated
Fri 18h44:00 33.9425 -118.4081 164° South  Level Estimated
Fri 18h45:00 33.9425 -118.4081 164° South  Level Estimated

Login

Don't have an account? Register now (free) for customized features, flight alerts, and more!